createdAt,value
2022-11-18T00:00:14.963Z,98512.25
2022-11-18T00:02:42.972Z,98514.94
2022-11-18T00:05:10.971Z,98506.34
2022-11-18T00:07:39.024Z,98503.06
2022-11-18T00:10:07.905Z,98498.13
2022-11-18T00:12:58.691Z,98502.59
2022-11-18T00:15:31.674Z,98499.41
2022-11-18T00:17:59.921Z,98503.16
2022-11-18T00:20:27.885Z,98506.69
2022-11-18T00:22:55.882Z,98497.63
2022-11-18T00:25:23.895Z,98494.25
2022-11-18T00:27:51.971Z,98498.56
2022-11-18T00:30:20.139Z,98498.56
2022-11-18T00:32:49.982Z,98487.50
2022-11-18T00:35:18.419Z,98493.13
2022-11-18T00:37:46.766Z,98490.88
2022-11-18T00:40:15.316Z,98485.38
2022-11-18T00:43:03.027Z,98476.59
2022-11-18T00:45:31.520Z,98479.03
2022-11-18T00:48:01.433Z,98470.59
2022-11-18T00:50:30.362Z,98467.97
2022-11-18T00:52:59.060Z,98475.94
2022-11-18T00:55:27.667Z,98473.41
2022-11-18T00:57:55.934Z,98481.31
2022-11-18T01:00:24.410Z,98482.38
2022-11-18T01:02:52.442Z,98486.94
2022-11-18T01:05:21.809Z,98485.31
2022-11-18T01:07:49.795Z,98487.94
2022-11-18T01:10:18.391Z,98493.38
2022-11-18T01:13:03.656Z,98479.34
2022-11-18T01:15:31.631Z,98482.50
2022-11-18T01:17:59.639Z,98464.13
2022-11-18T01:20:29.004Z,98458.06
2022-11-18T01:22:56.965Z,98454.09
2022-11-18T01:25:25.071Z,98444.47
2022-11-18T01:27:53.674Z,98441.81
2022-11-18T01:30:21.979Z,98446.00
2022-11-18T01:32:50.158Z,98452.09
2022-11-18T01:35:18.351Z,98443.88
2022-11-18T01:37:47.753Z,98440.72
2022-11-18T01:40:16.364Z,98440.72
2022-11-18T01:42:44.752Z,98446.78
2022-11-18T01:45:30.125Z,98441.19
2022-11-18T01:48:04.323Z,98449.88
2022-11-18T01:50:33.517Z,98444.94
2022-11-18T01:53:09.786Z,98449.50
2022-11-18T01:55:42.737Z,98458.44
2022-11-18T01:58:16.977Z,98466.84
2022-11-18T02:00:45.189Z,98475.63
2022-11-18T02:03:13.527Z,98466.47
2022-11-18T02:05:43.670Z,98470.09
2022-11-18T02:08:13.461Z,98467.94
2022-11-18T02:10:41.538Z,98463.56
2022-11-18T02:13:10.918Z,98459.88
2022-11-18T02:15:50.178Z,98446.09
2022-11-18T02:18:29.161Z,98447.44
2022-11-18T02:21:09.089Z,98445.22
2022-11-18T02:24:15.458Z,98455.03
2022-11-18T02:27:22.546Z,98445.63
2022-11-18T02:29:58.049Z,98443.84
2022-11-18T02:32:30.680Z,98441.81
2022-11-18T02:35:04.944Z,98439.63
2022-11-18T02:37:38.719Z,98438.16
2022-11-18T02:40:13.737Z,98423.81
2022-11-18T02:42:46.433Z,98414.22
2022-11-18T02:45:18.413Z,98404.94
2022-11-18T02:47:51.024Z,98402.63
2022-11-18T02:50:23.620Z,98403.84
2022-11-18T02:52:56.368Z,98401.72
2022-11-18T02:55:25.095Z,98404.88
2022-11-18T02:57:54.678Z,98397.59
2022-11-18T03:00:24.125Z,98392.00
2022-11-18T03:02:52.248Z,98389.94
2022-11-18T03:05:26.249Z,98398.16
2022-11-18T03:07:58.055Z,98400.50
2022-11-18T03:10:32.021Z,98395.72
2022-11-18T03:13:06.829Z,98407.84
2022-11-18T03:15:42.802Z,98402.63
2022-11-18T03:18:19.969Z,98400.47
2022-11-18T03:20:52.065Z,98414.03
2022-11-18T03:23:29.167Z,98404.94
2022-11-18T03:26:02.038Z,98410.91
2022-11-18T03:28:37.342Z,98412.50
2022-11-18T03:31:13.357Z,98415.03
2022-11-18T03:33:47.092Z,98415.59
2022-11-18T03:36:17.853Z,98416.44
2022-11-18T03:38:49.452Z,98417.72
2022-11-18T03:41:19.999Z,98424.19
2022-11-18T03:43:52.288Z,98421.38
2022-11-18T03:46:27.711Z,98419.25
2022-11-18T03:48:58.198Z,98416.34
2022-11-18T03:51:49.307Z,98429.72
2022-11-18T03:54:22.256Z,98430.56
2022-11-18T03:56:57.257Z,98427.94
2022-11-18T03:59:30.779Z,98425.97
2022-11-18T04:02:07.956Z,98410.22
2022-11-18T04:04:36.757Z,98411.88
2022-11-18T04:07:11.247Z,98399.94
2022-11-18T04:09:44.633Z,98400.75
2022-11-18T04:12:16.531Z,98390.66
2022-11-18T04:14:49.076Z,98384.13
2022-11-18T04:17:22.738Z,98380.91
2022-11-18T04:19:51.269Z,98375.28
2022-11-18T04:22:20.278Z,98368.91
2022-11-18T04:24:48.422Z,98367.06
2022-11-18T04:27:16.428Z,98354.88
2022-11-18T04:29:44.406Z,98354.22
2022-11-18T04:32:12.436Z,98349.34
2022-11-18T04:34:56.627Z,98349.28
2022-11-18T04:37:24.971Z,98344.75
2022-11-18T04:39:53.824Z,98341.84
2022-11-18T04:42:21.828Z,98351.19
2022-11-18T04:44:49.888Z,98365.72
2022-11-18T04:47:17.907Z,98367.38
2022-11-18T04:49:45.917Z,98371.66
2022-11-18T04:52:15.635Z,98383.09
2022-11-18T04:54:43.638Z,98389.81
2022-11-18T04:57:11.870Z,98385.28
2022-11-18T04:59:40.157Z,98388.09
2022-11-18T05:02:08.463Z,98395.88
2022-11-18T05:04:36.901Z,98377.84
2022-11-18T05:07:07.964Z,98394.28
2022-11-18T05:09:37.416Z,98388.66
2022-11-18T05:12:23.475Z,98381.59
2022-11-18T05:14:51.497Z,98360.66
2022-11-18T05:17:20.311Z,98362.47
2022-11-18T05:19:48.325Z,98362.13
2022-11-18T05:22:16.561Z,98357.94
2022-11-18T05:24:45.991Z,98361.19
2022-11-18T05:27:14.855Z,98351.66
2022-11-18T05:29:42.898Z,98351.25
2022-11-18T05:32:11.014Z,98362.56
2022-11-18T05:34:40.213Z,98365.63
2022-11-18T05:37:08.228Z,98363.84
2022-11-18T05:39:36.254Z,98361.97
2022-11-18T05:42:23.252Z,98355.88
2022-11-18T05:44:57.717Z,98345.03
2022-11-18T05:47:26.609Z,98351.72
2022-11-18T05:49:54.693Z,98352.75
2022-11-18T05:52:22.638Z,98363.06
2022-11-18T05:54:52.104Z,98365.56
2022-11-18T05:57:21.426Z,98364.72
2022-11-18T05:59:49.382Z,98355.59
2022-11-18T06:02:20.361Z,98366.84
2022-11-18T06:04:52.195Z,98369.56
2022-11-18T06:07:24.142Z,98372.09
2022-11-18T06:09:55.499Z,98369.34
2022-11-18T06:12:28.796Z,98373.56
2022-11-18T06:15:00.319Z,98372.72
2022-11-18T06:17:31.513Z,98366.22
2022-11-18T06:20:00.700Z,98364.56
2022-11-18T06:22:29.401Z,98355.75
2022-11-18T06:24:57.425Z,98359.41
2022-11-18T06:27:26.857Z,98361.81
2022-11-18T06:29:54.825Z,98356.38
2022-11-18T06:32:22.966Z,98365.09
2022-11-18T06:34:50.966Z,98344.84
2022-11-18T06:37:20.736Z,98355.31
2022-11-18T06:39:49.218Z,98354.72
2022-11-18T06:42:37.629Z,98348.41
2022-11-18T06:45:06.860Z,98343.16
2022-11-18T06:47:34.941Z,98354.47
2022-11-18T06:50:02.919Z,98353.25
2022-11-18T06:52:30.960Z,98357.22
2022-11-18T06:54:59.088Z,98350.06
2022-11-18T06:57:27.062Z,98359.09
2022-11-18T07:00:00.615Z,98363.41
2022-11-18T07:02:31.303Z,98358.16
2022-11-18T07:04:59.259Z,98360.78
2022-11-18T07:07:27.417Z,98368.41
2022-11-18T07:09:55.765Z,98368.97
2022-11-18T07:12:23.777Z,98362.78
2022-11-18T07:14:51.746Z,98358.19
2022-11-18T07:17:19.783Z,98358.06
2022-11-18T07:19:49.140Z,98348.63
2022-11-18T07:22:17.432Z,98341.69
2022-11-18T07:24:45.491Z,98338.78
2022-11-18T07:27:27.353Z,98340.47
2022-11-18T07:29:55.347Z,98353.25
2022-11-18T07:32:23.363Z,98340.03
2022-11-18T07:34:52.727Z,98337.94
2022-11-18T07:37:20.734Z,98338.78
2022-11-18T07:39:48.706Z,98336.25
2022-11-18T07:42:16.901Z,98337.41
2022-11-18T07:44:44.973Z,98327.66
2022-11-18T07:47:13.014Z,98310.25
2022-11-18T07:49:40.940Z,98312.88
2022-11-18T07:52:10.365Z,98315.72
2022-11-18T07:54:38.446Z,98308.38
2022-11-18T07:57:06.422Z,98313.63
2022-11-18T07:59:34.471Z,98313.38
2022-11-18T08:02:02.471Z,98316.56
2022-11-18T08:04:30.682Z,98316.66
2022-11-18T08:06:58.749Z,98323.47
2022-11-18T08:09:28.133Z,98324.31
2022-11-18T08:11:56.246Z,98333.97
2022-11-18T08:14:24.453Z,98331.44
2022-11-18T08:16:52.446Z,98314.34
2022-11-18T08:19:20.567Z,98321.06
2022-11-18T08:21:48.751Z,98319.50
2022-11-18T08:24:16.734Z,98328.72
2022-11-18T08:26:46.220Z,98322.53
2022-11-18T08:29:14.213Z,98308.69
2022-11-18T08:31:42.260Z,98312.56
2022-11-18T08:34:10.259Z,98297.56
2022-11-18T08:36:39.252Z,98295.78
2022-11-18T08:39:09.179Z,98291.56
2022-11-18T08:41:39.492Z,98292.97
2022-11-18T08:44:11.508Z,98282.16
2022-11-18T08:46:39.812Z,98283.63
2022-11-18T08:49:07.884Z,98278.16
2022-11-18T08:51:35.968Z,98269.78
2022-11-18T08:54:24.437Z,98274.38
2022-11-18T08:56:52.862Z,98269.97
2022-11-18T08:59:22.284Z,98268.91
2022-11-18T09:01:50.379Z,98271.84
2022-11-18T09:04:18.498Z,98263.22
2022-11-18T09:06:46.512Z,98267.31
2022-11-18T09:09:14.603Z,98278.56
2022-11-18T09:11:49.987Z,98280.22
2022-11-18T09:17:14.540Z,98285.69
2022-11-18T09:19:47.792Z,98289.47
2022-11-18T09:22:16.255Z,98283.28
2022-11-18T09:24:45.055Z,98273.72
2022-11-18T09:27:16.949Z,98270.59
2022-11-18T09:29:45.560Z,98272.50
2022-11-18T09:32:15.178Z,98265.25
2022-11-18T09:34:43.168Z,98255.09
2022-11-18T09:37:11.189Z,98259.09
2022-11-18T09:39:39.242Z,98258.13
2022-11-18T09:42:21.352Z,98241.69
2022-11-18T09:45:13.516Z,98245.03
2022-11-18T09:47:44.806Z,98245.34
2022-11-18T09:53:14.418Z,98243.34
2022-11-18T09:55:43.232Z,98238.28
2022-11-18T09:58:18.508Z,98236.44
2022-11-18T10:00:46.879Z,98226.34
2022-11-18T10:03:23.475Z,98206.44
2022-11-18T10:05:59.275Z,98202.66
2022-11-18T10:08:31.545Z,98206.00
2022-11-18T10:11:06.469Z,98200.53
2022-11-18T10:13:45.342Z,98212.56
2022-11-18T10:16:25.995Z,98193.22
2022-11-18T10:19:02.854Z,98203.38
2022-11-18T10:21:43.464Z,98212.69
2022-11-18T10:24:17.983Z,98209.94
2022-11-18T10:26:46.152Z,98191.72
2022-11-18T10:29:14.549Z,98200.00
2022-11-18T10:32:04.769Z,98197.91
2022-11-18T10:34:35.788Z,98180.59
2022-11-18T10:37:05.348Z,98180.59
2022-11-18T10:39:33.651Z,98193.00
2022-11-18T10:42:04.270Z,98190.47
2022-11-18T10:44:35.432Z,98179.47
2022-11-18T10:47:26.697Z,98189.63
2022-11-18T10:50:29.456Z,98185.47
2022-11-18T10:52:57.589Z,98178.31
2022-11-18T10:55:26.912Z,98176.13
2022-11-18T10:58:01.581Z,98175.19
2022-11-18T11:00:46.052Z,98179.47
2022-11-18T11:03:40.032Z,98165.13
2022-11-18T11:06:32.733Z,98170.16
2022-11-18T11:09:05.009Z,98173.94
2022-11-18T11:11:35.377Z,98173.22
2022-11-18T11:14:17.141Z,98174.88
2022-11-18T11:16:51.792Z,98182.75
2022-11-18T11:19:24.973Z,98185.91
2022-11-18T11:21:54.493Z,98190.75
2022-11-18T11:24:26.410Z,98188.13
2022-11-18T11:30:09.668Z,98189.59
2022-11-18T11:33:05.378Z,98199.84
2022-11-18T11:35:42.876Z,98191.91
2022-11-18T11:38:19.603Z,98193.69
2022-11-18T11:41:01.111Z,98188.22
2022-11-18T11:43:45.088Z,98191.28
2022-11-18T11:46:28.140Z,98170.19
2022-11-18T11:49:16.518Z,98177.34
2022-11-18T11:51:52.712Z,98184.97
2022-11-18T11:54:34.725Z,98189.19
2022-11-18T11:57:07.117Z,98180.28
2022-11-18T11:59:46.437Z,98181.31
2022-11-18T12:02:41.944Z,98188.84
2022-11-18T12:05:20.378Z,98172.63
2022-11-18T12:07:55.868Z,98171.56
2022-11-18T12:10:31.733Z,98173.13
2022-11-18T12:13:22.265Z,98172.72
2022-11-18T12:16:03.669Z,98168.75
2022-11-18T12:18:39.621Z,98175.56
2022-11-18T12:21:10.702Z,98160.38
2022-11-18T12:23:38.775Z,98167.28
2022-11-18T12:26:11.456Z,98149.25
2022-11-18T12:28:42.365Z,98150.53
2022-11-18T12:31:34.665Z,98145.09
2022-11-18T12:34:20.468Z,98133.78
2022-11-18T12:36:49.090Z,98133.16
2022-11-18T12:39:58.453Z,98132.31
2022-11-18T12:42:58.059Z,98137.31
2022-11-18T12:45:59.933Z,98132.00
2022-11-18T12:48:40.238Z,98132.09
2022-11-18T12:51:47.927Z,98141.09
2022-11-18T12:54:27.369Z,98137.44
2022-11-18T12:56:56.759Z,98129.69
2022-11-18T12:59:32.018Z,98134.81
2022-11-18T13:02:05.367Z,98143.50
2022-11-18T13:04:33.544Z,98149.72
2022-11-18T13:07:03.929Z,98159.22
2022-11-18T13:09:36.043Z,98163.75
2022-11-18T13:12:08.813Z,98174.84
2022-11-18T13:14:59.695Z,98184.78
2022-11-18T13:17:47.725Z,98180.50
2022-11-18T13:20:24.354Z,98183.97
2022-11-18T13:23:13.293Z,98188.56
2022-11-18T13:25:42.918Z,98177.25
2022-11-18T13:28:21.813Z,98185.75
2022-11-18T13:30:55.982Z,98196.94
2022-11-18T13:33:24.131Z,98198.72
2022-11-18T13:35:52.175Z,98196.00
2022-11-18T13:38:28.048Z,98196.00
2022-11-18T13:41:07.151Z,98195.69
2022-11-18T13:43:36.039Z,98197.13
2022-11-18T13:46:08.319Z,98202.75
2022-11-18T13:48:41.934Z,98199.63
2022-11-18T13:51:10.119Z,98198.66
2022-11-18T13:53:40.563Z,98197.94
2022-11-18T13:56:18.635Z,98196.06
2022-11-18T14:01:46.135Z,98194.69
2022-11-18T14:04:20.757Z,98190.28
2022-11-18T14:06:49.296Z,98188.63
2022-11-18T14:09:22.170Z,98192.28
2022-11-18T14:12:03.503Z,98183.38
2022-11-18T14:14:33.880Z,98191.56
2022-11-18T14:17:18.156Z,98195.97
2022-11-18T14:19:47.903Z,98189.63
2022-11-18T14:22:19.049Z,98200.44
2022-11-18T14:24:56.168Z,98201.38
2022-11-18T14:27:37.440Z,98202.53
2022-11-18T14:30:27.902Z,98198.03
2022-11-18T14:33:16.603Z,98207.03
2022-11-18T14:35:49.244Z,98201.56
2022-11-18T14:38:38.304Z,98205.78
2022-11-18T14:41:10.077Z,98197.81
2022-11-18T14:43:38.481Z,98190.72
2022-11-18T14:46:12.292Z,98194.91
2022-11-18T14:48:41.884Z,98193.88
2022-11-18T14:51:13.845Z,98200.97
2022-11-18T14:53:41.990Z,98196.59
2022-11-18T14:56:16.262Z,98195.72
2022-11-18T14:58:44.342Z,98188.81
2022-11-18T15:01:30.564Z,98198.56
2022-11-18T15:04:00.773Z,98194.28
2022-11-18T15:06:29.020Z,98187.34
2022-11-18T15:08:57.155Z,98188.81
2022-11-18T15:11:25.135Z,98180.03
2022-11-18T15:13:53.196Z,98192.19
2022-11-18T15:16:23.541Z,98193.88
2022-11-18T15:18:53.443Z,98188.63
2022-11-18T15:21:23.662Z,98201.53
2022-11-18T15:23:52.087Z,98199.63
2022-11-18T15:26:23.097Z,98206.66
2022-11-18T15:28:52.648Z,98203.06
2022-11-18T15:31:21.389Z,98204.34
2022-11-18T15:33:50.064Z,98207.91
2022-11-18T15:36:19.706Z,98201.81
2022-11-18T15:38:49.826Z,98203.38
2022-11-18T15:41:21.176Z,98208.53
2022-11-18T15:43:49.811Z,98205.91
2022-11-18T15:46:19.420Z,98199.75
2022-11-18T15:48:48.458Z,98198.66
2022-11-18T15:51:16.521Z,98203.91
2022-11-18T15:53:44.552Z,98216.09
2022-11-18T15:56:25.633Z,98215.13
2022-11-18T15:58:56.810Z,98222.34
2022-11-18T16:01:28.577Z,98221.31
2022-11-18T16:03:57.533Z,98222.78
2022-11-18T16:06:26.436Z,98223.66
2022-11-18T16:08:59.670Z,98220.25
2022-11-18T16:11:48.749Z,98228.94
2022-11-18T16:14:18.588Z,98225.31
2022-11-18T16:16:49.079Z,98228.03
2022-11-18T16:19:18.548Z,98223.53
2022-11-18T16:21:48.173Z,98220.94
2022-11-18T16:24:19.484Z,98222.88
2022-11-18T16:26:49.714Z,98231.78
2022-11-18T16:29:19.203Z,98237.22
2022-11-18T16:31:50.976Z,98230.31
2022-11-18T16:34:20.986Z,98222.34
2022-11-18T16:36:50.927Z,98223.94
2022-11-18T16:39:23.487Z,98240.22
2022-11-18T16:41:54.050Z,98236.81
2022-11-18T16:44:22.710Z,98245.25
2022-11-18T16:46:52.229Z,98236.63
2022-11-18T16:49:22.023Z,98235.13
2022-11-18T16:51:52.716Z,98240.38
2022-11-18T16:54:23.153Z,98248.97
2022-11-18T16:56:54.031Z,98244.50
2022-11-18T16:59:23.283Z,98237.59
2022-11-18T17:01:52.740Z,98250.38
2022-11-18T17:04:23.465Z,98245.13
2022-11-18T17:06:52.319Z,98246.34
2022-11-18T17:09:22.635Z,98257.41
2022-11-18T17:11:55.478Z,98251.00
2022-11-18T17:14:23.490Z,98265.66
2022-11-18T17:16:52.341Z,98262.84
2022-11-18T17:19:22.246Z,98265.16
2022-11-18T17:21:51.429Z,98258.25
2022-11-18T17:24:22.662Z,98272.69
2022-11-18T17:26:53.269Z,98274.38
2022-11-18T17:29:22.011Z,98278.56
2022-11-18T17:31:50.377Z,98279.53
2022-11-18T17:34:19.248Z,98279.00
2022-11-18T17:36:48.011Z,98267.44
2022-11-18T17:39:20.726Z,98281.06
2022-11-18T17:42:06.531Z,98281.06
2022-11-18T17:44:36.038Z,98281.50
2022-11-18T17:47:05.156Z,98295.03
2022-11-18T17:49:33.441Z,98286.09
2022-11-18T17:52:01.478Z,98297.22
2022-11-18T17:54:29.869Z,98292.81
2022-11-18T17:56:58.033Z,98296.91
2022-11-18T17:59:26.502Z,98284.00
2022-11-18T18:01:59.538Z,98301.00
2022-11-18T18:04:28.884Z,98290.53
2022-11-18T18:06:57.126Z,98298.06
2022-11-18T18:09:30.532Z,98300.59
2022-11-18T18:11:59.855Z,98306.88
2022-11-18T18:14:46.947Z,98303.44
2022-11-18T18:17:17.180Z,98301.00
2022-11-18T18:19:45.349Z,98312.81
2022-11-18T18:22:13.562Z,98313.06
2022-11-18T18:24:41.575Z,98318.88
2022-11-18T18:27:09.968Z,98324.97
2022-11-18T18:29:38.443Z,98331.97
2022-11-18T18:32:07.021Z,98333.69
2022-11-18T18:34:37.207Z,98330.09
2022-11-18T18:37:05.796Z,98326.53
2022-11-18T18:39:34.018Z,98330.09
2022-11-18T18:42:03.820Z,98334.19
2022-11-18T18:44:47.014Z,98332.31
2022-11-18T18:47:15.375Z,98328.13
2022-11-18T18:49:46.807Z,98343.94
2022-11-18T18:52:16.272Z,98343.94
2022-11-18T18:54:44.713Z,98340.38
2022-11-18T18:57:12.968Z,98341.88
2022-11-18T18:59:41.420Z,98346.25
2022-11-18T19:02:13.251Z,98353.50
2022-11-18T19:04:42.034Z,98358.16
2022-11-18T19:07:11.935Z,98359.31
2022-11-18T19:09:40.296Z,98362.78
2022-11-18T19:12:29.162Z,98374.09
2022-11-18T19:14:58.024Z,98369.69
2022-11-18T19:17:26.210Z,98376.72
2022-11-18T19:20:12.134Z,98382.69
2022-11-18T19:22:42.484Z,98383.50
2022-11-18T19:25:14.241Z,98385.22
2022-11-18T19:27:42.299Z,98398.38
2022-11-18T19:30:12.005Z,98398.38
2022-11-18T19:32:42.107Z,98406.78
2022-11-18T19:35:12.295Z,98401.34
2022-11-18T19:37:42.298Z,98390.72
2022-11-18T19:40:11.881Z,98402.78
2022-11-18T19:42:41.032Z,98416.00
2022-11-18T19:45:10.444Z,98413.91
2022-11-18T19:47:39.178Z,98425.41
2022-11-18T19:50:08.106Z,98433.38
2022-11-18T19:52:36.656Z,98436.72
2022-11-18T19:55:08.322Z,98450.59
2022-11-18T19:57:39.178Z,98455.47
2022-11-18T20:00:08.510Z,98465.00
2022-11-18T20:02:37.259Z,98471.19
2022-11-18T20:05:24.272Z,98462.03
2022-11-18T20:07:55.949Z,98465.88
2022-11-18T20:10:40.374Z,98474.63
2022-11-18T20:13:08.745Z,98479.88
2022-11-18T20:15:36.924Z,98487.00
2022-11-18T20:18:05.493Z,98487.19
2022-11-18T20:20:55.165Z,98493.63
2022-11-18T20:23:23.565Z,98497.66
2022-11-18T20:25:53.366Z,98506.44
2022-11-18T20:28:21.808Z,98516.06
2022-11-18T20:30:55.220Z,98512.91
2022-11-18T20:33:23.699Z,98516.44
2022-11-18T20:35:52.129Z,98519.16
2022-11-18T20:38:20.886Z,98531.56
2022-11-18T20:40:48.931Z,98531.78
2022-11-18T20:43:18.689Z,98529.53
2022-11-18T20:45:55.294Z,98540.81
2022-11-18T20:48:23.641Z,98535.13
2022-11-18T20:50:51.830Z,98558.69
2022-11-18T20:53:20.155Z,98549.91
2022-11-18T20:55:50.162Z,98551.50
2022-11-18T20:58:20.163Z,98562.22
2022-11-18T21:00:49.174Z,98566.72
2022-11-18T21:03:19.066Z,98575.28
2022-11-18T21:05:48.556Z,98587.47
2022-11-18T21:08:16.870Z,98586.25
2022-11-18T21:10:45.272Z,98580.34
2022-11-18T21:13:30.864Z,98589.34
2022-11-18T21:16:00.578Z,98602.50
2022-11-18T21:18:30.502Z,98609.63
2022-11-18T21:21:16.454Z,98607.72
2022-11-18T21:23:44.446Z,98619.16
2022-11-18T21:26:13.575Z,98622.47
2022-11-18T21:28:41.818Z,98630.75
2022-11-18T21:31:12.051Z,98641.47
2022-11-18T21:33:40.290Z,98643.16
2022-11-18T21:36:09.433Z,98634.72
2022-11-18T21:38:51.274Z,98644.28
2022-11-18T21:41:19.429Z,98653.88
2022-11-18T21:44:07.574Z,98655.22
2022-11-18T21:46:38.349Z,98664.00
2022-11-18T21:49:06.976Z,98667.56
2022-11-18T21:51:36.054Z,98659.72
2022-11-18T21:54:04.806Z,98662.66
2022-11-18T21:56:33.158Z,98670.00
2022-11-18T21:59:02.442Z,98666.88
2022-11-18T22:01:32.200Z,98655.81
2022-11-18T22:04:03.384Z,98662.47
2022-11-18T22:06:33.837Z,98664.13
2022-11-18T22:09:03.115Z,98660.75
2022-11-18T22:11:31.178Z,98666.44
2022-11-18T22:13:59.271Z,98682.25
2022-11-18T22:16:28.123Z,98680.66
2022-11-18T22:19:03.597Z,98685.56
2022-11-18T22:21:34.459Z,98683.97
2022-11-18T22:24:02.590Z,98693.09
2022-11-18T22:26:30.795Z,98696.53
2022-11-18T22:28:59.469Z,98705.13
2022-11-18T22:31:29.408Z,98708.66
2022-11-18T22:33:57.795Z,98714.97
2022-11-18T22:36:27.868Z,98721.59
2022-11-18T22:39:00.644Z,98712.06
2022-11-18T22:41:47.025Z,98724.34
2022-11-18T22:44:16.776Z,98721.75
2022-11-18T22:46:46.312Z,98736.63
2022-11-18T22:49:14.851Z,98746.47
2022-11-18T22:51:42.872Z,98748.22
2022-11-18T22:57:00.812Z,98749.91
2022-11-18T22:59:28.770Z,98747.00
2022-11-18T23:01:56.748Z,98739.56
2022-11-18T23:04:27.398Z,98749.91
2022-11-18T23:06:55.419Z,98750.91
2022-11-18T23:09:24.864Z,98751.59
2022-11-18T23:12:09.997Z,98754.59
2022-11-18T23:14:38.122Z,98744.75
2022-11-18T23:17:06.603Z,98754.47
2022-11-18T23:19:34.551Z,98744.34
2022-11-18T23:22:02.628Z,98736.44
2022-11-18T23:24:31.989Z,98741.78
2022-11-18T23:27:00.029Z,98740.25
2022-11-18T23:29:28.038Z,98753.66
2022-11-18T23:31:55.991Z,98759.03
2022-11-18T23:34:24.010Z,98760.31
2022-11-18T23:37:05.866Z,98769.72
2022-11-18T23:39:36.483Z,98774.72
2022-11-18T23:42:05.312Z,98780.34
2022-11-18T23:44:50.278Z,98784.94
2022-11-18T23:47:18.249Z,98781.56
2022-11-18T23:49:46.270Z,98785.00
2022-11-18T23:52:15.050Z,98779.94
2022-11-18T23:54:44.453Z,98786.22
2022-11-18T23:57:32.419Z,98789.16
